createdAt,value
2022-11-28T00:02:07.960Z,13.23
2022-11-28T00:04:36.809Z,13.42
2022-11-28T00:07:06.848Z,12.26
2022-11-28T00:09:38.190Z,11.11
2022-11-28T00:12:14.664Z,11.62
2022-11-28T00:14:47.941Z,12.39
2022-11-28T00:17:19.752Z,13.02
2022-11-28T00:19:50.272Z,13.45
2022-11-28T00:22:21.121Z,13.08
2022-11-28T00:24:50.325Z,11.77
2022-11-28T00:27:22.177Z,11.03
2022-11-28T00:29:59.368Z,11.92
2022-11-28T00:32:31.020Z,12.92
2022-11-28T00:35:02.121Z,13.46
2022-11-28T00:37:30.939Z,12.85
2022-11-28T00:39:59.086Z,11.56
2022-11-28T00:42:27.288Z,10.88
2022-11-28T00:45:00.903Z,11.64
2022-11-28T00:47:29.928Z,12.55
2022-11-28T00:49:58.348Z,12.90
2022-11-28T00:52:28.068Z,13.38
2022-11-28T00:54:59.416Z,13.41
2022-11-28T00:57:27.267Z,12.18
2022-11-28T00:59:56.060Z,11.20
2022-11-28T01:02:27.541Z,11.80
2022-11-28T01:04:58.683Z,12.76
2022-11-28T01:07:31.718Z,13.40
2022-11-28T01:10:03.997Z,13.44
2022-11-28T01:12:32.496Z,12.08
2022-11-28T01:15:00.336Z,11.10
2022-11-28T01:17:30.650Z,11.85
2022-11-28T01:19:59.042Z,12.83
2022-11-28T01:22:33.344Z,13.54
2022-11-28T01:25:13.227Z,13.47
2022-11-28T01:27:41.386Z,12.17
2022-11-28T01:30:19.200Z,10.93
2022-11-28T01:32:48.496Z,11.02
2022-11-28T01:35:23.889Z,12.36
2022-11-28T01:37:55.406Z,13.35
2022-11-28T01:40:28.389Z,13.53
2022-11-28T01:43:05.916Z,12.41
2022-11-28T01:45:48.551Z,11.13
2022-11-28T01:48:37.678Z,10.51
2022-11-28T01:51:14.994Z,11.73
2022-11-28T01:53:57.233Z,12.74
2022-11-28T01:56:38.999Z,13.21
2022-11-28T01:59:30.103Z,13.21
2022-11-28T02:02:16.557Z,11.72
2022-11-28T02:05:00.026Z,11.01
2022-11-28T02:07:35.583Z,12.03
2022-11-28T02:10:11.822Z,13.05
2022-11-28T02:13:23.285Z,13.63
2022-11-28T02:16:37.748Z,12.50
2022-11-28T02:19:49.716Z,11.00
2022-11-28T02:23:03.380Z,11.35
2022-11-28T02:29:22.562Z,13.19
2022-11-28T02:32:16.928Z,12.45
2022-11-28T02:35:43.862Z,11.18
2022-11-28T02:39:09.692Z,12.16
2022-11-28T02:42:25.677Z,13.09
2022-11-28T02:45:42.804Z,12.99
2022-11-28T02:48:48.657Z,11.40
2022-11-28T02:51:50.008Z,11.73
2022-11-28T02:54:25.362Z,12.75
2022-11-28T02:57:00.918Z,13.41
2022-11-28T03:00:31.774Z,12.72
2022-11-28T03:07:03.580Z,10.00
2022-11-28T03:12:57.845Z,12.64
2022-11-28T03:16:34.081Z,13.48
2022-11-28T03:19:36.882Z,12.71
2022-11-28T03:23:14.352Z,11.18
2022-11-28T03:30:10.561Z,12.61
2022-11-28T03:33:43.997Z,13.20
2022-11-28T03:36:47.852Z,11.67
2022-11-28T03:39:24.393Z,11.02
2022-11-28T03:42:29.435Z,12.18
2022-11-28T03:48:48.034Z,12.25
2022-11-28T03:56:11.563Z,10.69
2022-11-28T04:03:48.984Z,12.98
2022-11-28T04:07:21.700Z,11.74
2022-11-28T05:26:41.289Z,10.70
2022-11-28T05:29:09.798Z,10.07
2022-11-28T05:31:39.940Z,11.24
2022-11-28T05:37:02.150Z,12.47
2022-11-28T05:39:43.600Z,11.45
2022-11-28T05:42:28.684Z,10.11
2022-11-28T05:44:57.868Z,9.63
2022-11-28T05:48:21.098Z,10.78
2022-11-28T05:51:20.304Z,12.15
2022-11-28T05:54:02.054Z,12.39
2022-11-28T05:56:30.128Z,11.18
2022-11-28T05:58:58.244Z,10.07
2022-11-28T06:01:31.543Z,9.63
2022-11-28T06:04:14.707Z,10.86
2022-11-28T06:06:59.545Z,11.92
2022-11-28T06:09:28.728Z,11.34
2022-11-28T06:11:58.652Z,10.14
2022-11-28T06:14:28.692Z,10.25
2022-11-28T06:16:58.807Z,11.21
2022-11-28T06:19:30.375Z,11.99
2022-11-28T06:22:01.926Z,12.24
2022-11-28T06:24:29.748Z,10.95
2022-11-28T06:27:01.515Z,9.96
2022-11-28T06:29:32.992Z,10.76
2022-11-28T06:32:09.749Z,11.71
2022-11-28T06:34:37.761Z,11.93
2022-11-28T06:37:07.829Z,10.88
2022-11-28T06:39:36.739Z,9.84
2022-11-28T06:42:05.164Z,9.34
2022-11-28T06:44:40.396Z,10.32
2022-11-28T06:47:12.768Z,11.38
2022-11-28T06:49:41.041Z,11.71
2022-11-28T06:52:12.116Z,11.05
2022-11-28T06:54:42.168Z,9.95
2022-11-28T06:57:11.423Z,9.99
2022-11-28T06:59:43.258Z,11.46
2022-11-28T07:02:14.234Z,12.24
2022-11-28T07:04:54.606Z,11.81
2022-11-28T07:07:25.683Z,10.40
2022-11-28T07:09:54.144Z,9.37
2022-11-28T07:12:29.783Z,9.84
2022-11-28T07:14:57.614Z,11.18
2022-11-28T07:17:25.762Z,11.88
2022-11-28T07:19:57.340Z,11.79
2022-11-28T07:22:27.320Z,10.50
2022-11-28T07:24:57.733Z,9.46
2022-11-28T07:27:25.558Z,9.19
2022-11-28T07:29:57.094Z,10.30
2022-11-28T07:32:27.085Z,11.36
2022-11-28T07:34:55.164Z,11.69
2022-11-28T07:37:24.587Z,11.29
2022-11-28T07:39:53.664Z,10.25
2022-11-28T07:42:21.487Z,9.46
2022-11-28T07:44:54.328Z,10.27
2022-11-28T07:47:23.236Z,11.24
2022-11-28T07:49:57.028Z,11.73
2022-11-28T07:52:25.259Z,11.15
2022-11-28T07:54:54.991Z,10.02
2022-11-28T07:57:23.404Z,9.27
2022-11-28T07:59:54.219Z,10.20
2022-11-28T08:02:27.460Z,11.28
2022-11-28T08:05:00.254Z,11.62
2022-11-28T08:07:32.047Z,10.98
2022-11-28T08:10:00.869Z,9.82
2022-11-28T08:12:30.410Z,8.97
2022-11-28T08:15:01.586Z,9.27
2022-11-28T08:17:34.984Z,10.87
2022-11-28T08:20:06.384Z,11.75
2022-11-28T08:22:36.371Z,12.32
2022-11-28T08:25:06.619Z,11.65
2022-11-28T08:27:36.098Z,10.35
2022-11-28T08:30:04.631Z,9.64
2022-11-28T08:32:35.143Z,10.52
2022-11-28T08:35:08.430Z,11.46
2022-11-28T08:37:36.738Z,11.90
2022-11-28T08:40:06.575Z,11.66
2022-11-28T08:42:36.062Z,10.49
2022-11-28T08:45:11.697Z,9.67
2022-11-28T08:47:39.517Z,10.54
2022-11-28T08:50:09.216Z,11.61
2022-11-28T08:52:38.077Z,12.11
2022-11-28T08:55:07.701Z,11.59
2022-11-28T08:57:40.287Z,10.38
2022-11-28T09:00:09.076Z,9.59
2022-11-28T09:02:36.940Z,10.57
2022-11-28T09:05:09.466Z,11.78
2022-11-28T09:07:37.470Z,12.49
2022-11-28T09:10:06.893Z,12.13
2022-11-28T09:12:35.012Z,10.91
2022-11-28T09:15:04.675Z,9.91
2022-11-28T09:17:35.254Z,10.28
2022-11-28T09:20:10.819Z,11.41
2022-11-28T09:22:41.222Z,12.21
2022-11-28T09:25:12.053Z,12.08
2022-11-28T09:27:42.394Z,10.75
2022-11-28T09:30:13.844Z,9.74
2022-11-28T09:32:42.630Z,10.15
2022-11-28T09:35:11.805Z,11.29
2022-11-28T09:37:42.885Z,12.15
2022-11-28T09:40:30.824Z,12.16
2022-11-28T09:43:15.982Z,10.88
2022-11-28T09:45:49.324Z,9.73
2022-11-28T09:48:54.253Z,9.76
2022-11-28T09:51:29.780Z,11.08
2022-11-28T09:54:29.921Z,12.03
2022-11-28T09:57:00.462Z,12.76
2022-11-28T09:59:30.784Z,12.34
2022-11-28T10:02:21.176Z,11.04
2022-11-28T10:05:24.419Z,9.83
2022-11-28T10:08:36.508Z,9.68
2022-11-28T10:11:24.643Z,11.34
2022-11-28T10:14:40.294Z,12.59
2022-11-28T10:17:31.367Z,12.60
2022-11-28T10:20:12.286Z,11.09
2022-11-28T10:22:58.527Z,9.97
2022-11-28T10:25:37.720Z,10.69
2022-11-28T10:28:15.823Z,11.71
2022-11-28T10:30:53.739Z,12.18
2022-11-28T10:33:30.308Z,11.34
2022-11-28T10:36:02.258Z,10.10
2022-11-28T10:38:39.221Z,10.10
2022-11-28T10:42:15.188Z,11.53
2022-11-28T10:45:24.257Z,12.81
2022-11-28T10:48:40.369Z,12.57
2022-11-28T10:51:55.101Z,10.93
2022-11-28T10:54:43.083Z,9.98
2022-11-28T10:57:41.347Z,11.05
2022-11-28T11:00:21.547Z,12.29
2022-11-28T11:02:56.087Z,12.69
2022-11-28T11:05:36.206Z,11.43
2022-11-28T11:08:38.966Z,10.17
2022-11-28T11:11:32.934Z,10.99
2022-11-28T11:14:11.742Z,12.41
2022-11-28T11:16:59.463Z,13.02
2022-11-28T11:19:40.881Z,11.88
2022-11-28T11:22:25.421Z,10.41
2022-11-28T11:25:20.145Z,9.59
2022-11-28T11:27:57.010Z,10.88
2022-11-28T11:30:40.404Z,12.24
2022-11-28T11:33:32.413Z,13.11
2022-11-28T11:36:03.778Z,12.41
2022-11-28T11:38:38.092Z,11.00
2022-11-28T11:41:38.274Z,10.07
2022-11-28T11:44:15.079Z,11.24
2022-11-28T11:47:09.471Z,12.41
2022-11-28T11:49:50.799Z,13.02
2022-11-28T11:52:26.899Z,11.90
2022-11-28T11:55:26.064Z,10.60
2022-11-28T11:58:05.687Z,10.21
2022-11-28T12:00:41.848Z,11.64
2022-11-28T12:03:26.681Z,12.57
2022-11-28T12:06:14.139Z,12.77
2022-11-28T12:08:53.828Z,11.33
2022-11-28T12:11:36.627Z,10.18
2022-11-28T12:14:35.222Z,10.34
2022-11-28T12:17:49.428Z,11.91
2022-11-28T12:20:47.133Z,13.08
2022-11-28T12:24:22.496Z,12.72
2022-11-28T12:27:10.205Z,10.84
2022-11-28T12:30:19.657Z,10.35
2022-11-28T12:33:01.447Z,11.70
2022-11-28T12:36:17.278Z,12.36
2022-11-28T12:39:00.909Z,13.00
2022-11-28T12:42:19.195Z,12.31
2022-11-28T12:45:42.731Z,10.76
2022-11-28T12:49:03.039Z,10.17
2022-11-28T12:52:33.475Z,11.71
2022-11-28T12:55:54.717Z,12.57
2022-11-28T12:58:35.216Z,12.40
2022-11-28T13:01:33.001Z,11.00
2022-11-28T13:04:29.953Z,10.70
2022-11-28T13:07:31.839Z,11.77
2022-11-28T13:10:29.438Z,12.61
2022-11-28T13:13:24.770Z,12.69
2022-11-28T13:16:27.181Z,11.33
2022-11-28T13:19:18.659Z,10.11
2022-11-28T13:22:23.783Z,10.30
2022-11-28T13:25:22.629Z,11.56
2022-11-28T13:28:37.868Z,12.07
2022-11-28T13:31:48.984Z,12.43
2022-11-28T13:34:19.957Z,10.96
2022-11-28T13:40:41.302Z,12.03
2022-11-28T13:43:29.466Z,12.58
2022-11-28T13:46:07.774Z,11.54
2022-11-28T13:52:39.064Z,10.48
2022-11-28T13:55:52.856Z,11.52
2022-11-28T13:59:00.407Z,12.05
2022-11-28T14:05:35.162Z,11.48
2022-11-28T14:08:34.665Z,10.21
2022-11-28T14:12:10.710Z,10.88
2022-11-28T14:22:32.725Z,10.98
2022-11-28T14:25:35.661Z,10.08
2022-11-28T14:28:22.473Z,10.97
2022-11-28T14:32:06.994Z,12.17
2022-11-28T14:34:48.398Z,12.85
2022-11-28T14:37:37.207Z,12.36
2022-11-28T14:41:02.809Z,10.99
2022-11-28T14:43:49.802Z,9.84
2022-11-28T14:46:29.079Z,10.66
2022-11-28T14:49:19.843Z,11.77
2022-11-28T14:55:48.465Z,12.20
2022-11-28T15:01:17.620Z,10.07
2022-11-28T15:04:28.430Z,10.94
2022-11-28T15:07:01.791Z,12.07
2022-11-28T15:13:49.463Z,11.29
2022-11-28T15:16:22.454Z,9.99
2022-11-28T15:19:09.754Z,10.11
2022-11-28T15:21:52.329Z,11.22
2022-11-28T15:24:39.266Z,11.93
2022-11-28T15:27:37.498Z,12.45
2022-11-28T15:30:45.309Z,11.79
2022-11-28T15:36:46.353Z,10.59
2022-11-28T15:39:31.884Z,11.74
2022-11-28T15:42:03.953Z,12.63
2022-11-28T15:44:45.490Z,12.60
2022-11-28T15:47:42.925Z,11.39
2022-11-28T15:50:46.061Z,10.07
2022-11-28T15:54:20.301Z,9.87
2022-11-28T15:57:11.970Z,11.64
2022-11-28T15:59:42.491Z,12.63
2022-11-28T16:02:48.590Z,13.06
2022-11-28T16:09:10.748Z,10.38
2022-11-28T16:40:26.403Z,12.44
2022-11-28T16:43:40.513Z,11.59
2022-11-28T16:47:53.422Z,9.95
2022-11-28T17:13:30.746Z,12.31
2022-11-28T17:50:34.325Z,11.46
2022-11-28T17:53:36.622Z,10.76
2022-11-28T18:06:40.494Z,11.69
2022-11-28T18:09:15.091Z,10.73
2022-11-28T18:12:05.230Z,9.67
2022-11-28T18:14:39.583Z,9.41
2022-11-28T18:17:11.464Z,10.41
2022-11-28T18:19:43.971Z,11.15
2022-11-28T18:22:12.768Z,11.32
2022-11-28T18:24:41.581Z,10.35
2022-11-28T18:27:10.632Z,9.42
2022-11-28T18:29:41.191Z,10.17
2022-11-28T18:32:11.750Z,11.21
2022-11-28T18:34:41.292Z,11.60
2022-11-28T18:37:09.200Z,10.71
2022-11-28T18:39:40.036Z,9.63
2022-11-28T18:42:10.002Z,9.67
2022-11-28T18:44:38.214Z,10.76
2022-11-28T18:47:06.518Z,11.40
2022-11-28T18:49:37.890Z,10.63
2022-11-28T18:52:08.863Z,9.57
2022-11-28T18:54:38.722Z,8.98
2022-11-28T18:57:09.860Z,9.87
2022-11-28T18:59:47.823Z,10.96
2022-11-28T19:02:30.103Z,11.38
2022-11-28T19:05:06.275Z,10.34
2022-11-28T19:07:34.475Z,9.30
2022-11-28T19:10:04.253Z,9.37
2022-11-28T19:12:36.276Z,10.67
2022-11-28T19:15:08.164Z,11.18
2022-11-28T19:17:37.751Z,10.53
2022-11-28T19:20:06.856Z,9.52
2022-11-28T19:22:40.166Z,8.72
2022-11-28T19:25:09.164Z,9.16
2022-11-28T19:27:39.294Z,10.58
2022-11-28T19:30:10.073Z,11.56
2022-11-28T19:32:44.972Z,11.14
2022-11-28T19:35:13.675Z,9.77
2022-11-28T19:37:42.224Z,8.84
2022-11-28T19:40:12.800Z,9.19
2022-11-28T19:42:51.561Z,10.58
2022-11-28T19:45:22.758Z,10.76
2022-11-28T19:47:51.249Z,9.91
2022-11-28T19:50:19.261Z,9.02
2022-11-28T19:52:48.022Z,9.09
2022-11-28T19:55:17.928Z,10.35
2022-11-28T19:57:46.913Z,11.41
2022-11-28T20:00:18.426Z,11.83
2022-11-28T20:02:50.507Z,10.85
2022-11-28T20:05:20.611Z,9.79
2022-11-28T20:07:53.175Z,8.93
2022-11-28T20:10:23.855Z,8.27
2022-11-28T20:13:00.691Z,8.19
2022-11-28T20:15:32.731Z,9.84
2022-11-28T20:18:10.909Z,11.41
2022-11-28T20:20:40.727Z,11.68
2022-11-28T20:23:10.579Z,10.46
2022-11-28T20:25:38.379Z,9.41
2022-11-28T20:28:08.940Z,8.62
2022-11-28T20:30:36.936Z,8.34
2022-11-28T20:33:04.667Z,9.60
2022-11-28T20:35:36.149Z,10.87
2022-11-28T20:38:04.103Z,11.52
2022-11-28T20:40:32.076Z,10.67
2022-11-28T20:43:00.593Z,9.61
2022-11-28T20:45:29.770Z,8.77
2022-11-28T20:47:59.906Z,8.50
2022-11-28T20:50:28.958Z,9.73
2022-11-28T20:52:57.569Z,11.06
2022-11-28T20:55:26.515Z,11.38
2022-11-28T20:57:57.385Z,10.35
2022-11-28T21:00:27.355Z,9.22
2022-11-28T21:02:55.776Z,8.44
2022-11-28T21:05:24.992Z,9.02
2022-11-28T21:07:54.890Z,10.48
2022-11-28T21:10:26.896Z,11.40
2022-11-28T21:12:57.358Z,10.74
2022-11-28T21:15:26.395Z,9.54
2022-11-28T21:17:54.459Z,8.60
2022-11-28T21:20:23.109Z,8.98
2022-11-28T21:22:54.986Z,10.40
2022-11-28T21:25:31.549Z,11.23
2022-11-28T21:27:59.623Z,10.60
2022-11-28T21:30:30.239Z,9.52
2022-11-28T21:32:59.142Z,8.67
2022-11-28T21:35:27.186Z,9.43
2022-11-28T21:37:55.277Z,10.64
2022-11-28T21:40:25.218Z,10.93
2022-11-28T21:42:57.968Z,9.90
2022-11-28T21:45:26.288Z,8.91
2022-11-28T21:47:58.146Z,8.39
2022-11-28T21:50:30.552Z,9.44
2022-11-28T21:52:58.817Z,10.47
2022-11-28T21:55:27.245Z,10.35
2022-11-28T21:57:55.348Z,9.44
2022-11-28T22:00:45.993Z,8.56
2022-11-28T22:03:14.293Z,8.71
2022-11-28T22:05:43.433Z,10.18
2022-11-28T22:08:11.218Z,11.22
2022-11-28T22:10:39.152Z,11.31
2022-11-28T22:13:20.834Z,10.13
2022-11-28T22:15:48.760Z,9.13
2022-11-28T22:18:19.017Z,8.50
2022-11-28T22:20:52.862Z,9.50
2022-11-28T22:23:24.976Z,10.83
2022-11-28T22:25:54.207Z,11.33
2022-11-28T22:28:25.079Z,10.44
2022-11-28T22:30:54.740Z,9.30
2022-11-28T22:33:23.004Z,8.38
2022-11-28T22:35:56.749Z,8.89
2022-11-28T22:38:27.168Z,10.27
2022-11-28T22:40:55.937Z,11.25
2022-11-28T22:43:24.909Z,11.45
2022-11-28T22:45:58.927Z,10.23
2022-11-28T22:48:32.503Z,9.12
2022-11-28T22:51:06.540Z,8.28
2022-11-28T22:53:39.987Z,7.94
2022-11-28T22:56:14.150Z,9.18
2022-11-28T22:58:47.496Z,10.63
2022-11-28T23:01:22.746Z,11.41
2022-11-28T23:03:55.242Z,10.82
2022-11-28T23:06:32.000Z,9.62
2022-11-28T23:09:08.906Z,8.60
2022-11-28T23:11:39.987Z,8.10
2022-11-28T23:14:13.693Z,9.32
2022-11-28T23:16:45.541Z,10.60
2022-11-28T23:19:20.089Z,10.88
2022-11-28T23:21:53.111Z,9.89
2022-11-28T23:24:23.981Z,8.90
2022-11-28T23:26:59.537Z,8.58
2022-11-28T23:29:31.036Z,10.00
2022-11-28T23:31:59.014Z,10.75
2022-11-28T23:34:27.733Z,10.10
2022-11-28T23:36:56.421Z,9.03
2022-11-28T23:39:24.424Z,8.28
2022-11-28T23:41:55.544Z,8.13
2022-11-28T23:44:23.473Z,9.51
2022-11-28T23:46:51.609Z,10.82
2022-11-28T23:49:24.061Z,11.16
2022-11-28T23:51:54.750Z,10.20
2022-11-28T23:54:24.006Z,9.14
2022-11-28T23:56:52.166Z,8.34
2022-11-28T23:59:26.334Z,8.63
